createdAt,value
2023-06-02T00:01:00.510Z,11.1
2023-06-02T00:03:30.240Z,11
2023-06-02T00:07:38.020Z,11
2023-06-02T00:09:44.741Z,11
2023-06-02T00:11:48.678Z,11
2023-06-02T00:13:52.555Z,11
2023-06-02T00:15:56.501Z,10.9
2023-06-02T00:18:00.420Z,10.9
2023-06-02T00:20:04.279Z,10.9
2023-06-02T00:28:22.690Z,10.7
2023-06-02T00:32:30.504Z,10.7
2023-06-02T00:34:34.451Z,10.7
2023-06-02T00:36:38.325Z,10.7
2023-06-02T00:58:26.274Z,10.6
2023-06-02T01:02:34.174Z,10.6
2023-06-02T01:04:38.011Z,10.6
2023-06-02T01:06:44.734Z,10.5
2023-06-02T01:08:48.677Z,10.5
2023-06-02T01:10:52.499Z,10.5
2023-06-02T01:17:04.199Z,10.4
2023-06-02T01:21:14.804Z,10.4
2023-06-02T01:23:18.701Z,10.4
2023-06-02T01:25:22.601Z,10.5
2023-06-02T01:27:26.517Z,10.5
2023-06-02T01:31:34.365Z,10.5
2023-06-02T01:35:44.924Z,10.5
2023-06-02T01:37:48.803Z,10.5
2023-06-02T01:39:52.725Z,10.4
2023-06-02T01:41:56.620Z,10.4
2023-06-02T01:44:00.517Z,10.4
2023-06-02T01:46:05.302Z,10.4
2023-06-02T01:48:08.845Z,10.5
2023-06-02T01:50:15.545Z,10.4
2023-06-02T01:52:19.502Z,10.4
2023-06-02T01:54:23.335Z,10.4
2023-06-02T01:57:30.553Z,10.4
2023-06-02T01:59:34.472Z,10.4
2023-06-02T02:03:45.200Z,10.4
2023-06-02T02:05:49.005Z,10.4
2023-06-02T02:07:52.871Z,10.4
2023-06-02T02:09:56.784Z,10.5
2023-06-02T02:14:04.593Z,10.4
2023-06-02T02:16:08.494Z,10.4
2023-06-02T02:18:15.231Z,10.4
2023-06-02T02:30:38.580Z,10.4
2023-06-02T02:32:45.430Z,10.4
2023-06-02T02:38:57.079Z,10.4
2023-06-02T02:41:00.977Z,10.3
2023-06-02T02:45:08.743Z,10.3
2023-06-02T02:51:23.239Z,10.3
2023-06-02T02:52:26.613Z,10.3
2023-06-02T03:02:48.963Z,10.3
2023-06-02T03:04:52.796Z,10.3
2023-06-02T03:06:56.671Z,10.3
2023-06-02T03:09:00.670Z,10.3
2023-06-02T03:13:08.408Z,10.2
2023-06-02T03:15:16.643Z,10.1
2023-06-02T03:17:20.500Z,10.1
2023-06-02T03:21:28.312Z,10.2
2023-06-02T03:23:32.147Z,10.2
2023-06-02T03:25:36.018Z,10.2
2023-06-02T03:27:39.915Z,10.2
2023-06-02T03:29:46.670Z,10.2
2023-06-02T03:31:50.582Z,10.3
2023-06-02T03:33:54.388Z,10.3
2023-06-02T03:35:58.318Z,10.2
2023-06-02T03:38:02.201Z,10.2
2023-06-02T03:42:10.006Z,10.2
2023-06-02T03:44:16.696Z,10.3
2023-06-02T03:48:24.463Z,10.3
2023-06-02T03:52:56.002Z,10.3
2023-06-02T03:54:59.924Z,10.3
2023-06-02T04:03:19.306Z,10.3
2023-06-02T04:05:22.297Z,10.3
2023-06-02T04:07:26.186Z,10.3
2023-06-02T04:09:30.074Z,10.3
2023-06-02T04:11:36.781Z,10.3
2023-06-02T04:13:40.663Z,10.3
2023-06-02T04:15:44.565Z,10.3
2023-06-02T04:17:48.468Z,10.3
2023-06-02T04:19:52.342Z,10.4
2023-06-02T04:21:56.264Z,10.5
2023-06-02T04:24:00.180Z,10.4
2023-06-02T04:26:08.654Z,10.5
2023-06-02T04:28:10.732Z,10.5
2023-06-02T04:30:14.590Z,10.5
2023-06-02T04:32:18.506Z,10.5
2023-06-02T04:38:30.216Z,10.4
2023-06-02T04:45:48.114Z,10.6
2023-06-02T04:47:52.022Z,10.6
2023-06-02T04:49:55.872Z,10.6
2023-06-02T04:56:10.390Z,10.7
2023-06-02T05:00:18.221Z,10.8
2023-06-02T05:08:36.554Z,10.8
2023-06-02T05:10:40.483Z,10.8
2023-06-02T05:12:44.346Z,10.9
2023-06-02T05:18:56.098Z,11
2023-06-02T05:20:59.894Z,11
2023-06-02T05:25:11.764Z,11
2023-06-02T05:31:22.274Z,11
2023-06-02T05:37:36.778Z,11.2
2023-06-02T05:39:40.681Z,11.1
2023-06-02T05:55:14.218Z,11.1
2023-06-02T05:57:18.099Z,11.1
2023-06-02T06:03:29.927Z,11.3
2023-06-02T06:05:36.576Z,11.2
2023-06-02T06:07:40.452Z,11.3
2023-06-02T06:09:44.404Z,11.3
2023-06-02T06:11:48.276Z,11.2
2023-06-02T06:13:52.190Z,11.2
2023-06-02T06:15:56.139Z,11.2
2023-06-02T06:18:00.087Z,11.1
2023-06-02T06:20:06.723Z,11.3
2023-06-02T06:22:10.607Z,11.4
2023-06-02T06:24:14.544Z,11.4
2023-06-02T06:26:18.457Z,11.2
2023-06-02T06:28:22.385Z,11.1
2023-06-02T06:30:26.332Z,11.3
2023-06-02T06:32:30.204Z,11.3
2023-06-02T06:34:36.889Z,11.4
2023-06-02T06:36:40.800Z,11.4
2023-06-02T06:38:44.702Z,11.3
2023-06-02T06:39:48.087Z,11.3
2023-06-02T06:41:51.979Z,11.3
2023-06-02T06:43:55.874Z,11.4
2023-06-02T06:50:10.411Z,11.4
2023-06-02T06:52:14.369Z,11.5
2023-06-02T06:56:22.164Z,11.5
2023-06-02T06:58:26.103Z,11.5
2023-06-02T07:00:29.972Z,11.6
2023-06-02T07:02:36.721Z,11.6
2023-06-02T07:17:06.922Z,11.7
2023-06-02T07:21:14.705Z,11.7
2023-06-02T07:23:18.638Z,11.9
2023-06-02T07:27:26.462Z,12
2023-06-02T07:29:30.373Z,12
2023-06-02T07:38:14.601Z,12
2023-06-02T07:40:18.559Z,11.9
2023-06-02T07:42:22.509Z,11.9
2023-06-02T07:44:29.158Z,11.9
2023-06-02T07:48:36.972Z,12.1
2023-06-02T07:50:40.895Z,12.1
2023-06-02T07:52:44.803Z,12.1
2023-06-02T07:54:48.717Z,12.1
2023-06-02T07:56:52.622Z,12.2
2023-06-02T07:58:59.366Z,12.3
2023-06-02T08:01:03.529Z,12.2
2023-06-02T08:03:07.347Z,12.2
2023-06-02T08:05:11.142Z,12.1
2023-06-02T08:07:15.043Z,12.3
2023-06-02T08:09:18.912Z,12.4
2023-06-02T08:11:22.874Z,12.6
2023-06-02T08:33:11.075Z,13.8
2023-06-02T08:35:15.011Z,13.9
2023-06-02T08:51:49.218Z,14.3
2023-06-02T08:53:53.130Z,14.2
2023-06-02T08:55:59.930Z,14.3
2023-06-02T08:58:03.842Z,14.4
2023-06-02T09:06:19.561Z,14
2023-06-02T09:14:39.607Z,14.3
2023-06-02T09:18:47.437Z,14.6
2023-06-02T09:20:51.381Z,14.4
2023-06-02T09:22:55.923Z,14.2
2023-06-02T09:25:02.070Z,14.3
2023-06-02T09:30:13.312Z,14.4
2023-06-02T09:32:17.302Z,14.6
2023-06-02T09:34:21.157Z,14.7
2023-06-02T09:36:25.099Z,14.7
2023-06-02T09:38:31.859Z,14.3
2023-06-02T09:42:39.742Z,14.2
2023-06-02T09:44:43.647Z,14.2
2023-06-02T09:46:47.658Z,14.2
2023-06-02T09:48:51.616Z,14
2023-06-02T09:50:55.442Z,13.9
2023-06-02T09:53:02.228Z,13.9
2023-06-02T09:55:06.133Z,14
2023-06-02T09:59:13.997Z,14.2
2023-06-02T10:03:21.972Z,14.5
2023-06-02T10:05:25.805Z,14.6
2023-06-02T10:09:36.470Z,14.9
2023-06-02T10:13:44.325Z,14.9
2023-06-02T10:15:48.354Z,15.1
2023-06-02T10:17:52.280Z,14.9
2023-06-02T10:22:02.920Z,15.2
2023-06-02T10:24:06.882Z,15
2023-06-02T10:26:10.759Z,15.2
2023-06-02T10:27:14.121Z,15.2
2023-06-02T10:45:52.306Z,14.9
2023-06-02T10:54:10.812Z,15.9
2023-06-02T10:58:18.688Z,16.8
2023-06-02T11:00:22.577Z,16.5
2023-06-02T11:02:26.529Z,16.4
2023-06-02T11:04:33.329Z,16.5
2023-06-02T11:10:45.056Z,16.9
2023-06-02T11:12:48.997Z,16.7
2023-06-02T11:14:52.913Z,17.1
2023-06-02T11:21:07.851Z,16.7
2023-06-02T11:23:11.445Z,16.6
2023-06-02T11:25:41.092Z,16.6
2023-06-02T11:29:48.947Z,17.2
2023-06-02T11:31:55.661Z,17.1
2023-06-02T11:33:59.622Z,17
2023-06-02T11:38:07.422Z,17.3
2023-06-02T11:40:11.376Z,17.6
2023-06-02T11:42:15.267Z,17.6
2023-06-02T11:44:19.307Z,17.6
2023-06-02T11:46:25.972Z,18
2023-06-02T11:48:29.927Z,18.1
2023-06-02T12:03:00.272Z,18.1
2023-06-02T12:05:04.144Z,18.3
2023-06-02T12:11:15.805Z,18
2023-06-02T12:13:19.686Z,19.5
2023-06-02T12:15:26.457Z,21.3
2023-06-02T12:17:30.430Z,20.6
2023-06-02T12:28:56.074Z,20.7
2023-06-02T12:31:00.003Z,20.8
2023-06-02T12:33:03.917Z,21.6
2023-06-02T12:35:07.757Z,21
2023-06-02T12:37:11.686Z,21.6
2023-06-02T12:39:15.558Z,21.3
2023-06-02T12:41:19.459Z,22
2023-06-02T12:43:26.172Z,21.9
2023-06-02T12:45:30.071Z,20.9
2023-06-02T12:47:34.026Z,19.5
2023-06-02T12:49:37.867Z,20.6
2023-06-02T12:51:41.760Z,21.6
2023-06-02T12:57:56.262Z,22.5
2023-06-02T13:02:04.068Z,21.3
2023-06-02T13:04:08.038Z,21.7
2023-06-02T13:08:15.726Z,21.5
2023-06-02T13:10:19.596Z,22.2
2023-06-02T13:12:26.327Z,20.8
2023-06-02T13:14:30.217Z,21.1
2023-06-02T13:16:34.120Z,22.2
2023-06-02T13:30:03.578Z,19.9
2023-06-02T13:32:07.481Z,20.7
2023-06-02T13:34:11.335Z,20.9
2023-06-02T13:38:19.105Z,21.1
2023-06-02T13:40:25.848Z,21.2
2023-06-02T13:42:29.674Z,21.5
2023-06-02T13:46:37.438Z,21
2023-06-02T13:52:49.086Z,20.9
2023-06-02T14:14:36.940Z,21.2
2023-06-02T14:16:40.828Z,21.3
2023-06-02T14:18:44.692Z,20.5
2023-06-02T14:20:48.560Z,20.7
2023-06-02T14:22:55.282Z,20.9
2023-06-02T14:24:59.156Z,20.5
2023-06-02T14:29:06.943Z,20.5
2023-06-02T14:33:14.669Z,20.3
2023-06-02T14:35:18.561Z,20.5
2023-06-02T14:37:25.295Z,20.6
2023-06-02T14:39:29.147Z,20.6
2023-06-02T14:41:33.041Z,20.5
2023-06-02T14:43:36.902Z,20.9
2023-06-02T14:45:40.804Z,20.9
2023-06-02T14:49:48.588Z,20.8
2023-06-02T14:53:59.167Z,20.8
2023-06-02T14:56:03.277Z,20.3
2023-06-02T14:58:06.932Z,20.1
2023-06-02T15:00:10.862Z,20.2
2023-06-02T15:02:14.722Z,20.5
2023-06-02T15:04:18.835Z,20.3
2023-06-02T15:06:25.347Z,20.9
2023-06-02T15:08:29.214Z,21.1
2023-06-02T15:10:33.109Z,21.6
2023-06-02T15:13:04.224Z,21.2
2023-06-02T15:15:08.111Z,21.1
2023-06-02T15:25:30.382Z,21.2
2023-06-02T15:27:34.280Z,21.4
2023-06-02T15:29:38.195Z,21.1
2023-06-02T15:31:42.256Z,21.3
2023-06-02T15:33:48.784Z,20.5
2023-06-02T15:35:52.708Z,20.3
2023-06-02T15:37:56.593Z,20.3
2023-06-02T15:40:00.490Z,20.3
2023-06-02T15:42:04.370Z,20.4
2023-06-02T15:46:12.257Z,20.6
2023-06-02T15:50:22.819Z,20.8
2023-06-02T15:52:26.723Z,20.6
2023-06-02T15:54:30.591Z,20.6
2023-06-02T15:56:34.483Z,20.6
2023-06-02T15:58:38.403Z,20.3
2023-06-02T16:00:42.294Z,20.2
2023-06-02T16:02:49.041Z,20.4
2023-06-02T16:04:52.963Z,20.7
2023-06-02T16:06:56.854Z,21
2023-06-02T16:08:00.219Z,21.3
2023-06-02T16:10:04.104Z,21.3
2023-06-02T16:12:08.012Z,21.3
2023-06-02T16:14:11.884Z,21.3
2023-06-02T16:16:18.692Z,20.7
2023-06-02T16:18:22.554Z,20.6
2023-06-02T16:20:26.464Z,20.4
2023-06-02T16:22:30.352Z,20.4
2023-06-02T16:24:34.313Z,20.7
2023-06-02T16:30:48.797Z,20.6
2023-06-02T16:32:52.720Z,20.6
2023-06-02T16:34:56.591Z,20.5
2023-06-02T16:37:00.518Z,20.5
2023-06-02T16:39:04.418Z,20.4
2023-06-02T16:41:08.318Z,20.1
2023-06-02T16:43:12.212Z,20.1
2023-06-02T16:45:18.997Z,20.1
2023-06-02T16:47:22.866Z,20.1
2023-06-02T16:49:26.750Z,20.1
2023-06-02T16:51:30.688Z,20.1
2023-06-02T16:53:34.590Z,20.4
2023-06-02T16:55:38.505Z,20.1
2023-06-02T16:57:42.420Z,20.1
2023-06-02T16:59:49.266Z,20.6
2023-06-02T17:01:53.413Z,20.8
2023-06-02T17:03:57.172Z,21.1
2023-06-02T17:15:22.836Z,19.9
2023-06-02T17:27:49.173Z,20
2023-06-02T17:34:00.924Z,19.9
2023-06-02T17:36:04.798Z,19.9
2023-06-02T17:38:08.756Z,20.2
2023-06-02T17:40:12.659Z,20
2023-06-02T17:44:23.322Z,19.6
2023-06-02T17:48:31.147Z,19.3
2023-06-02T17:50:35.080Z,19.2
2023-06-02T17:52:38.979Z,19.3
2023-06-02T17:54:43.011Z,19.3
2023-06-02T17:56:49.643Z,19.5
2023-06-02T17:58:53.541Z,19.5
2023-06-02T18:00:57.556Z,19.6
2023-06-02T18:02:00.886Z,19.5
2023-06-02T18:04:04.818Z,19.5
2023-06-02T18:06:08.693Z,19.3
2023-06-02T18:08:12.588Z,19.2
2023-06-02T18:10:19.360Z,19
2023-06-02T18:12:23.288Z,19
2023-06-02T18:14:27.208Z,19.2
2023-06-02T18:16:31.153Z,19.3
2023-06-02T18:18:35.046Z,19.3
2023-06-02T18:20:38.993Z,19.4
2023-06-02T18:22:42.903Z,19.5
2023-06-02T18:24:49.653Z,19.4
2023-06-02T18:28:57.464Z,19.5
2023-06-02T18:33:05.349Z,19.5
2023-06-02T18:35:09.244Z,19.4
2023-06-02T18:37:13.191Z,19.4
2023-06-02T18:43:27.767Z,19.3
2023-06-02T18:45:31.692Z,19.2
2023-06-02T18:47:35.643Z,19.1
2023-06-02T18:51:43.494Z,19.1
2023-06-02T18:53:50.240Z,19
2023-06-02T18:57:58.074Z,18.9
2023-06-02T19:00:27.721Z,19
2023-06-02T19:04:35.567Z,19
2023-06-02T19:06:42.321Z,18.9
2023-06-02T19:08:46.248Z,18.9
2023-06-02T19:10:50.204Z,18.9
2023-06-02T19:12:54.103Z,18.8
2023-06-02T19:14:58.031Z,18.8
2023-06-02T19:19:05.937Z,18.6
2023-06-02T19:21:12.896Z,18.6
2023-06-02T19:25:20.566Z,18.5
2023-06-02T19:27:24.432Z,18.5
2023-06-02T19:29:28.374Z,18.5
2023-06-02T19:31:32.326Z,18.4
2023-06-02T19:33:36.225Z,18.4
2023-06-02T19:35:42.985Z,18.3
2023-06-02T19:37:46.914Z,18.3
2023-06-02T19:39:50.860Z,18.2
2023-06-02T19:41:54.781Z,18.1
2023-06-02T19:43:58.687Z,18
2023-06-02T19:46:02.687Z,18
2023-06-02T19:48:06.762Z,17.9
2023-06-02T19:52:17.271Z,17.8
2023-06-02T19:54:21.210Z,17.6
2023-06-02T19:55:26.783Z,17.5
2023-06-02T19:57:28.543Z,17.5
2023-06-02T19:59:32.445Z,17.5
2023-06-02T20:01:36.436Z,17.4
2023-06-02T20:03:43.215Z,17.3
2023-06-02T20:05:47.063Z,17.3
2023-06-02T20:16:06.733Z,16.9
2023-06-02T20:18:13.553Z,16.8
2023-06-02T20:20:17.411Z,16.7
2023-06-02T20:22:21.350Z,16.6
2023-06-02T20:38:55.647Z,16.1
2023-06-02T20:40:59.593Z,16.1
2023-06-02T20:49:18.100Z,16
2023-06-02T20:51:22.398Z,16
2023-06-02T20:52:25.436Z,15.9
2023-06-02T20:56:33.328Z,15.9
2023-06-02T20:58:37.230Z,15.9
2023-06-02T21:09:01.228Z,15.6
2023-06-02T21:11:05.304Z,15.5
2023-06-02T21:13:09.080Z,15.5
2023-06-02T21:15:15.827Z,15.4
2023-06-02T21:17:19.784Z,15.4
2023-06-02T21:21:27.636Z,15.4
2023-06-02T21:23:31.609Z,15.3
2023-06-02T21:25:35.480Z,15.2
2023-06-02T21:27:39.440Z,15.1
2023-06-02T21:29:46.200Z,15.1
2023-06-02T21:31:50.169Z,15.1
2023-06-02T21:33:54.006Z,15
2023-06-02T21:35:57.952Z,15
2023-06-02T21:38:01.884Z,14.8
2023-06-02T21:40:05.805Z,14.7
2023-06-02T21:42:09.752Z,14.5
2023-06-02T21:44:16.510Z,14.4
2023-06-02T21:46:20.445Z,14.4
2023-06-02T21:48:24.333Z,14.3
2023-06-02T21:49:27.713Z,14.2
2023-06-02T21:55:39.524Z,14
2023-06-02T21:59:50.172Z,13.9
2023-06-02T22:12:16.559Z,13.5
2023-06-02T22:14:20.481Z,13.5
2023-06-02T22:16:24.427Z,13.4
2023-06-02T22:26:46.819Z,13.3
2023-06-02T22:32:58.610Z,13.1
2023-06-02T22:35:02.476Z,13.1
2023-06-02T22:37:06.404Z,13
2023-06-02T22:39:10.310Z,13
2023-06-02T22:43:20.997Z,13
2023-06-02T22:45:24.888Z,13
2023-06-02T22:47:54.647Z,12.9
2023-06-02T22:49:58.510Z,12.9
2023-06-02T22:54:09.182Z,12.8
2023-06-02T22:56:13.098Z,12.8
2023-06-02T22:58:16.995Z,12.7
2023-06-02T23:00:20.934Z,12.7
2023-06-02T23:02:24.860Z,12.8
2023-06-02T23:06:32.674Z,12.7
2023-06-02T23:12:47.199Z,12.6
2023-06-02T23:14:51.122Z,12.6
2023-06-02T23:16:55.046Z,12.6
2023-06-02T23:18:58.955Z,12.5
2023-06-02T23:21:02.992Z,12.6
2023-06-02T23:23:09.604Z,12.6
2023-06-02T23:25:13.493Z,12.6
2023-06-02T23:27:17.437Z,12.5
2023-06-02T23:29:21.327Z,12.5
2023-06-02T23:31:25.326Z,12.4
2023-06-02T23:33:29.169Z,12.4
2023-06-02T23:35:33.410Z,12.4
2023-06-02T23:39:43.746Z,12.4
2023-06-02T23:41:47.618Z,12.3
2023-06-02T23:49:02.703Z,12.4
2023-06-02T23:51:09.435Z,12.4
2023-06-02T23:53:13.343Z,12.4
2023-06-02T23:55:17.203Z,12.4
